Carl, Iowa
Current Conditions -  °F | °C
As of 10:15 PM on Sunday 23 Nov 2014 (Local Time) from KCSQ Reporting Station
Overcast Overcast  
Wind Chill: 27°   Ceiling: 9000
Heat Index: 37°   Visibility: 10mi
Dew Point: 32°   Wind: 22mph
Humidity: 81%   Direction: 320°NW
Pressure: 29.43"   Gusts: 28mph
Location:  41.0285°N, 94.7568°W
Report Text: KCSQ 240415Z AUTO 32019G24KT 10SM SCT075 OVC090 03/00 A2943 RMK AO2
Loading
Personal Weather Stations






























Interactive Weather Map New forecast layout! Learn more

10-Day Weather Forecast

Advertisements
Track Severe Weather on mobile